Bay Acres, Arizona
Current Conditions -  °F | °C
As of 5:56 AM on Saturday 20 Dec 2014 (Local Time) from KDUG Reporting Station
Clear Clear  
Wind Chill: 12°   Ceiling: Unl
Heat Index: 21°   Visibility: 10mi
Dew Point: 18°   Wind: 7mph
Humidity: 88%   Direction: 270°W
Pressure: 30.15"   Gusts: NA
Location:  31.4518°N, 109.329°W
Report Text: KDUG 201256Z AUTO 27006KT 10SM CLR M06/M08 A3015 RMK AO2 SLP211 T10611078
Loading
Personal Weather Stations






























Interactive Weather Map New forecast layout! Learn more

10-Day Weather Forecast

Advertisements
Track Severe Weather on mobile